Adams, Illinois
Current Conditions -  °F | °C
As of 3:54 AM on Saturday 22 Nov 2014 (Local Time) from KUIN Reporting Station
Haze Haze  
Wind Chill: 38°   Ceiling: 1900
Heat Index: 44°   Visibility: 6mi
Dew Point: 40°   Wind: 12mph
Humidity: 85%   Direction: 190°S
Pressure: 30.06"   Gusts: NA
Location:  39.8875°N, 91.0352°W
Report Text: KUIN 220954Z AUTO 19010KT 6SM BR OVC019 07/04 A3006 RMK AO2 RAB24E34 SLP182 P0000 T00670044
Loading
Personal Weather Stations






























Interactive Weather Map New forecast layout! Learn more

10-Day Weather Forecast

Advertisements
Track Severe Weather on mobile